Time;durP1;ratioP1;P1;durP2;ratioP2;P2;SDS_P1;SDS_P2;PMS_P1;PMS_P2;Temp;Humidity;BMP_temperature;BMP_pressure;BME280_temperature;BME280_humidity;BME280_pressure;Samples;Min_cycle;Max_cycle;Signal;HPM_P1;HPM_P2
2022/12/23 00:09:07;;;;;;;20.77;8.38;;;7.40;99.90;;;;;;6251731;22;20019;-95
2022/12/23 00:28:27;;;;;;;18.40;7.47;;;7.40;99.90;;;;;;6278262;22;20400;-94
2022/12/23 00:30:54;;;;;;;;;;;7.30;99.90;;;;;;6227598;22;20047;-93
2022/12/23 00:33:22;;;;;;;19.05;7.05;;;7.40;99.90;;;;;;6227064;22;19915;-96
2022/12/23 00:35:49;;;;;;;22.17;8.60;;;7.40;99.90;;;;;;6227236;22;20020;-95
2022/12/23 01:45:10;;;;;;;19.98;8.02;;;7.30;99.90;;;;;;6279999;22;20023;-93
2022/12/23 01:48:09;;;;;;;19.63;8.23;;;7.30;99.90;;;;;;6254474;22;20011;-95
2022/12/23 01:51:16;;;;;;;25.08;8.95;;;7.30;99.90;;;;;;6280444;22;20095;-96
2022/12/23 02:59:22;;;;;;;22.70;7.78;;;7.30;99.90;;;;;;6310623;22;20382;-95
2022/12/23 03:01:49;;;;;;;24.05;8.32;;;7.30;99.90;;;;;;6287087;22;20031;-94
2022/12/23 03:59:49;;;;;;;20.75;6.85;;;7.20;99.90;;;;;;6308157;22;20023;-95
2022/12/23 04:02:19;;;;;;;20.65;6.90;;;7.30;99.90;;;;;;6256690;22;20027;-92
2022/12/23 05:21:07;;;;;;;19.23;6.43;;;7.10;99.90;;;;;;6277784;22;20027;-95
2022/12/23 06:07:33;;;;;;;15.52;4.60;;;6.90;99.90;;;;;;6266110;22;20034;-94
2022/12/23 06:09:58;;;;;;;14.82;4.82;;;6.80;99.90;;;;;;6230676;22;20019;-94
2022/12/23 06:12:24;;;;;;;17.53;5.57;;;6.80;99.90;;;;;;6206976;22;20016;-94
2022/12/23 06:53:43;;;;;;;17.00;6.35;;;6.60;99.90;;;;;;6248631;22;20039;-93
2022/12/23 06:56:25;;;;;;;14.03;4.97;;;6.60;99.90;;;;;;6232497;23;20071;-95
2022/12/23 06:58:53;;;;;;;14.05;4.85;;;6.60;99.90;;;;;;6224259;23;20035;-96
2022/12/23 07:01:23;;;;;;;15.10;5.05;;;6.60;99.90;;;;;;6200640;23;20442;-95
2022/12/23 08:19:53;;;;;;;13.98;5.07;;;6.90;99.90;;;;;;6280622;22;20023;-90
2022/12/23 10:27:48;;;;;;;16.33;6.38;;;7.30;99.90;;;;;;6275821;22;20433;-91
2022/12/23 10:30:15;;;;;;;17.50;6.03;;;7.40;99.90;;;;;;6251158;22;20051;-90
2022/12/23 10:33:11;;;;;;;16.15;6.15;;;7.40;99.90;;;;;;6251051;22;20016;-91
2022/12/23 10:35:37;;;;;;;14.90;5.47;;;7.40;99.90;;;;;;6251231;22;20023;-90
2022/12/23 10:38:40;;;;;;;14.67;5.40;;;7.40;99.90;;;;;;6250815;22;20015;-90
2022/12/23 10:41:34;;;;;;;17.20;5.57;;;7.40;99.90;;;;;;6276696;22;20384;-90
2022/12/23 10:44:24;;;;;;;12.93;4.78;;;7.40;99.90;;;;;;6250986;22;20463;-90
2022/12/23 11:07:33;;;;;;;11.70;4.53;;;7.30;99.90;;;;;;6295362;22;20019;-92
2022/12/23 11:10:01;;;;;;;10.63;4.23;;;7.30;99.90;;;;;;6230672;22;20026;-92
2022/12/23 11:12:40;;;;;;;10.10;4.22;;;7.30;99.90;;;;;;6255651;22;20094;-93
2022/12/23 11:15:29;;;;;;;11.80;4.63;;;7.30;99.90;;;;;;6255588;22;20053;-89
2022/12/23 11:18:36;;;;;;;8.95;3.10;;;7.30;99.90;;;;;;6255977;22;20121;-91
2022/12/23 11:21:04;;;;;;;8.25;3.00;;;7.30;99.90;;;;;;6255677;22;20075;-92
2022/12/23 11:23:34;;;;;;;9.35;3.25;;;7.30;99.90;;;;;;6255940;22;20007;-93
2022/12/23 11:26:10;;;;;;;7.68;3.20;;;7.30;99.90;;;;;;6231471;22;20102;-90
2022/12/23 11:28:51;;;;;;;8.38;3.38;;;7.20;99.90;;;;;;6255410;22;20019;-91
2022/12/23 11:31:28;;;;;;;8.05;3.00;;;7.20;99.90;;;;;;6254758;22;20033;-91
2022/12/23 11:34:21;;;;;;;7.97;3.38;;;7.20;99.90;;;;;;6255226;22;20098;-91
2022/12/23 12:02:53;;;;;;;7.93;3.53;;;7.10;99.90;;;;;;6294927;22;20027;-89
2022/12/23 12:05:45;;;;;;;8.65;3.25;;;7.10;99.90;;;;;;6255741;22;20455;-88
2022/12/23 12:08:19;;;;;;;7.70;3.00;;;7.10;99.90;;;;;;6256583;22;20026;-91
2022/12/23 12:10:48;;;;;;;9.65;4.00;;;7.10;99.90;;;;;;6257611;22;20011;-92
2022/12/23 12:13:22;;;;;;;10.57;4.15;;;7.10;99.90;;;;;;6232666;22;20023;-87
2022/12/23 12:15:47;;;;;;;7.90;3.38;;;7.10;99.90;;;;;;6257372;22;20019;-91
2022/12/23 12:18:16;;;;;;;9.10;4.57;;;7.10;99.90;;;;;;6257718;22;20517;-91
2022/12/23 12:20:47;;;;;;;11.57;4.22;;;7.10;99.90;;;;;;6282935;22;20098;-89
2022/12/23 12:23:49;;;;;;;12.15;4.15;;;7.20;99.90;;;;;;6257691;22;20011;-90
2022/12/23 12:26:26;;;;;;;8.85;3.35;;;7.20;99.90;;;;;;6257287;22;20061;-93
2022/12/23 12:31:36;;;;;;;10.63;3.30;;;7.20;99.90;;;;;;6277954;22;20019;-88
2022/12/23 12:34:19;;;;;;;10.95;3.58;;;7.20;99.90;;;;;;6252191;22;20023;-91
2022/12/23 12:37:25;;;;;;;9.32;3.42;;;7.20;99.90;;;;;;6252523;22;20016;-93
2022/12/23 12:40:02;;;;;;;9.43;3.53;;;7.20;99.90;;;;;;6246530;22;20019;-90
2022/12/23 12:42:37;;;;;;;11.10;4.32;;;7.20;99.90;;;;;;6252173;22;20030;-89
2022/12/23 12:45:22;;;;;;;11.23;4.53;;;7.20;99.90;;;;;;6252287;22;20345;-90
2022/12/23 12:48:25;;;;;;;13.40;5.65;;;7.20;99.90;;;;;;6252191;22;20023;-89
2022/12/23 12:51:10;;;;;;;15.13;5.53;;;7.20;99.90;;;;;;6251904;22;20016;-92
2022/12/23 12:53:40;;;;;;;10.80;4.78;;;7.20;99.90;;;;;;6251735;22;20020;-90
2022/12/23 13:27:16;;;;;;;10.38;4.43;;;7.20;99.90;;;;;;6299466;22;20027;-89
2022/12/23 13:30:12;;;;;;;10.55;4.03;;;7.20;99.90;;;;;;6257130;22;20041;-88
2022/12/23 13:37:48;;;;;;;13.50;4.78;;;7.30;99.90;;;;;;6282831;22;20030;-91
2022/12/23 13:40:37;;;;;;;15.63;5.50;;;7.30;99.90;;;;;;6256368;22;20019;-91
2022/12/23 14:04:32;;;;;;;18.92;6.88;;;7.30;99.90;;;;;;6304922;22;20028;-89
2022/12/23 14:07:18;;;;;;;15.10;5.85;;;7.20;99.90;;;;;;6256392;22;20015;-90
2022/12/23 14:10:01;;;;;;;16.52;6.32;;;7.20;99.90;;;;;;6257018;22;20416;-91
2022/12/23 14:12:36;;;;;;;18.88;6.35;;;7.20;99.90;;;;;;6256358;22;20019;-90
2022/12/23 14:15:25;;;;;;;15.27;6.40;;;7.20;99.90;;;;;;6256238;22;20050;-90
2022/12/23 14:18:18;;;;;;;15.50;5.78;;;7.10;99.90;;;;;;6255782;22;20326;-90
2022/12/23 14:21:14;;;;;;;12.93;5.63;;;7.20;99.90;;;;;;6281276;22;20016;-87
2022/12/23 14:23:54;;;;;;;16.45;5.78;;;7.10;99.90;;;;;;6205167;22;20021;-90
2022/12/23 14:26:50;;;;;;;13.90;6.03;;;7.10;99.90;;;;;;6281515;22;20015;-88
2022/12/23 14:29:28;;;;;;;13.77;4.88;;;7.20;99.90;;;;;;6255742;22;20022;-88
2022/12/23 14:31:56;;;;;;;16.27;6.18;;;7.10;99.90;;;;;;6255170;22;20015;-87
2022/12/23 14:34:27;;;;;;;15.43;7.03;;;7.10;99.90;;;;;;6256057;22;20033;-88
2022/12/23 14:37:23;;;;;;;17.52;6.63;;;7.10;99.90;;;;;;6256075;22;20015;-91
2022/12/23 14:39:51;;;;;;;14.40;6.90;;;7.20;99.90;;;;;;6255733;22;20019;-90
2022/12/23 14:43:12;;;;;;;17.17;7.25;;;7.20;99.90;;;;;;6255569;22;20012;-87
2022/12/23 14:45:41;;;;;;;17.27;6.60;;;7.20;99.90;;;;;;6153880;23;20033;-90
2022/12/23 14:48:32;;;;;;;20.35;7.20;;;7.20;99.90;;;;;;6274469;22;20102;-88
2022/12/23 14:51:22;;;;;;;19.13;6.40;;;7.10;99.90;;;;;;6255479;22;20042;-92
2022/12/23 14:53:51;;;;;;;15.80;6.07;;;7.20;99.90;;;;;;6285247;22;20345;-88
2022/12/23 14:56:35;;;;;;;19.63;7.25;;;7.20;99.90;;;;;;6255703;22;20336;-88
2022/12/23 14:59:20;;;;;;;17.65;6.82;;;7.10;99.90;;;;;;6255858;22;20057;-88
2022/12/23 15:01:47;;;;;;;17.77;7.38;;;7.10;99.90;;;;;;6280948;22;20011;-91
2022/12/23 15:04:12;;;;;;;18.67;6.95;;;7.10;99.90;;;;;;6254919;22;20045;-90
2022/12/23 15:06:41;;;;;;;21.47;8.20;;;7.20;99.90;;;;;;6255265;22;20023;-89
2022/12/23 15:09:16;;;;;;;22.13;8.63;;;7.20;99.90;;;;;;6254518;22;20011;-93
2022/12/23 15:11:42;;;;;;;17.05;7.35;;;7.20;99.90;;;;;;6280440;22;20019;-89
2022/12/23 15:14:13;;;;;;;22.63;7.93;;;7.20;99.90;;;;;;6255434;22;20515;-93
2022/12/23 15:16:43;;;;;;;21.48;6.35;;;7.20;99.90;;;;;;6255461;22;20008;-88
2022/12/23 15:19:21;;;;;;;20.00;7.32;;;7.20;99.90;;;;;;6280725;22;20513;-93
2022/12/23 15:21:48;;;;;;;18.27;7.00;;;7.20;99.90;;;;;;6255727;22;20011;-91
2022/12/23 15:24:20;;;;;;;18.85;6.53;;;7.20;99.90;;;;;;6280464;22;20027;-93
2022/12/23 15:26:51;;;;;;;15.88;6.50;;;7.20;99.90;;;;;;6254490;22;20011;-91
2022/12/23 15:29:19;;;;;;;24.05;7.03;;;7.20;99.90;;;;;;6254779;22;20011;-89
2022/12/23 15:31:53;;;;;;;15.65;6.43;;;7.20;99.90;;;;;;6230348;22;20019;-90
2022/12/23 15:34:37;;;;;;;19.20;6.70;;;7.10;99.90;;;;;;6255953;22;20026;-90
2022/12/23 15:37:08;;;;;;;16.58;6.13;;;7.10;99.90;;;;;;6230024;22;20052;-90
2022/12/23 15:39:36;;;;;;;19.98;6.40;;;7.10;99.90;;;;;;6255341;22;20019;-89
2022/12/23 15:42:03;;;;;;;15.65;5.35;;;7.10;99.90;;;;;;6254144;22;20063;-89
2022/12/23 15:44:37;;;;;;;14.77;5.85;;;7.10;99.90;;;;;;6254083;22;20070;-91
2022/12/23 15:47:27;;;;;;;16.98;6.50;;;7.00;99.90;;;;;;6254059;22;20015;-90
2022/12/23 15:49:55;;;;;;;17.60;6.32;;;7.00;99.90;;;;;;6254165;22;20019;-90
2022/12/23 15:52:21;;;;;;;17.45;6.20;;;7.00;99.90;;;;;;6254082;22;20023;-90
2022/12/23 17:05:47;;;;;;;15.13;6.82;;;6.80;99.90;;;;;;6221940;22;20024;-90
2022/12/23 17:08:13;;;;;;;17.38;5.93;;;6.80;99.90;;;;;;6220997;23;20397;-90
2022/12/23 17:10:41;;;;;;;14.87;6.27;;;6.80;99.90;;;;;;6220449;23;20008;-90
2022/12/23 17:18:17;;;;;;;18.52;8.02;;;6.80;99.90;;;;;;6246164;22;20028;-91
2022/12/23 17:20:47;;;;;;;29.37;9.60;;;6.80;99.90;;;;;;6194529;23;20050;-89
2022/12/23 17:23:33;;;;;;;15.70;6.03;;;6.80;99.90;;;;;;6220885;23;20008;-90
2022/12/23 17:25:59;;;;;;;16.55;7.15;;;6.90;99.90;;;;;;6220012;23;20023;-89
2022/12/23 17:28:29;;;;;;;20.27;6.83;;;6.90;99.90;;;;;;6220362;23;20012;-90
2022/12/23 17:30:55;;;;;;;17.88;7.60;;;6.90;99.90;;;;;;6220389;23;20023;-88
2022/12/23 17:33:25;;;;;;;16.20;7.03;;;6.90;99.90;;;;;;6220472;23;20016;-88
2022/12/23 17:35:54;;;;;;;19.00;6.97;;;6.90;99.90;;;;;;6220744;23;20016;-90
2022/12/23 17:38:21;;;;;;;18.80;7.03;;;6.90;99.90;;;;;;6220742;23;20056;-90
2022/12/23 17:40:47;;;;;;;14.73;6.35;;;6.90;99.90;;;;;;6271367;22;20188;-90
2022/12/23 17:43:15;;;;;;;16.55;7.03;;;6.90;99.90;;;;;;6245515;23;20016;-89
2022/12/23 17:45:41;;;;;;;18.92;7.35;;;6.90;99.90;;;;;;6220587;23;20012;-91
2022/12/23 17:48:10;;;;;;;19.63;7.30;;;6.90;99.90;;;;;;6220658;23;20059;-89
2022/12/23 17:50:39;;;;;;;18.65;7.50;;;6.90;99.90;;;;;;6220554;23;20012;-92
2022/12/23 17:53:18;;;;;;;15.75;6.50;;;6.90;99.90;;;;;;6220444;23;20023;-95
2022/12/23 17:58:19;;;;;;;16.02;6.70;;;6.80;99.90;;;;;;6253198;22;20027;-91
2022/12/23 18:00:45;;;;;;;16.40;5.17;;;6.80;99.90;;;;;;6225851;22;20076;-92
2022/12/23 18:03:22;;;;;;;13.15;5.00;;;6.80;99.90;;;;;;6225889;22;20014;-91
2022/12/23 18:05:48;;;;;;;13.43;4.60;;;6.80;99.90;;;;;;6250967;22;20089;-92
2022/12/23 18:08:14;;;;;;;12.88;4.25;;;6.80;99.90;;;;;;6251237;22;20012;-91
2022/12/23 18:10:39;;;;;;;18.00;5.47;;;6.80;99.90;;;;;;6274584;22;20016;-88
2022/12/23 18:13:08;;;;;;;19.43;6.60;;;6.80;99.90;;;;;;6225316;22;20019;-89
2022/12/23 18:15:38;;;;;;;17.92;5.70;;;6.80;99.90;;;;;;6250796;22;20086;-89
2022/12/23 18:18:30;;;;;;;49.80;21.88;;;6.80;99.90;;;;;;6250432;22;20023;-88
2022/12/23 18:20:57;;;;;;;25.42;11.07;;;6.80;99.90;;;;;;6246333;22;20055;-90
2022/12/23 18:23:25;;;;;;;30.75;11.57;;;6.80;99.90;;;;;;6250342;22;20031;-89
2022/12/23 18:25:51;;;;;;;19.55;8.65;;;6.80;99.90;;;;;;6250599;22;20019;-90
2022/12/23 18:28:17;;;;;;;15.65;5.57;;;6.70;99.90;;;;;;6225438;22;20008;-91
2022/12/23 18:30:43;;;;;;;15.70;6.33;;;6.80;99.90;;;;;;6250584;22;20437;-89
2022/12/23 18:33:10;;;;;;;14.13;6.37;;;6.70;99.90;;;;;;6248888;22;20019;-89
2022/12/23 18:35:45;;;;;;;16.15;6.55;;;6.70;99.90;;;;;;6248790;22;20051;-89
2022/12/23 18:38:14;;;;;;;13.90;6.47;;;6.70;99.90;;;;;;6248744;22;20023;-92
2022/12/23 18:40:48;;;;;;;;;;;6.70;99.90;;;;;;6248437;22;20015;-89
2022/12/23 18:56:20;;;;;;;12.90;5.45;;;6.70;99.90;;;;;;6277164;22;20024;-90
2022/12/23 19:26:56;;;;;;;12.10;5.00;;;6.60;99.90;;;;;;6276640;22;20098;-89
2022/12/23 19:39:43;;;;;;;15.68;6.60;;;6.60;99.90;;;;;;6276913;22;20046;-90
2022/12/23 19:49:55;;;;;;;18.75;7.60;;;6.60;99.90;;;;;;6276423;22;20426;-90
2022/12/23 19:52:21;;;;;;;15.50;6.50;;;6.60;99.90;;;;;;6225425;22;20030;-89
2022/12/23 19:55:16;;;;;;;17.33;7.00;;;6.60;99.90;;;;;;6251195;22;20759;-94
2022/12/23 19:57:42;;;;;;;15.48;6.50;;;6.60;99.90;;;;;;6189154;22;20020;-89
2022/12/23 20:00:14;;;;;;;16.15;5.78;;;6.60;99.90;;;;;;6247926;22;20015;-90
2022/12/23 20:02:40;;;;;;;15.48;5.60;;;6.60;99.90;;;;;;6222485;22;20102;-90
2022/12/23 20:26:17;;;;;;;14.80;6.18;;;6.60;99.90;;;;;;6276917;22;20457;-88
2022/12/23 20:59:48;;;;;;;16.20;5.80;;;6.50;99.90;;;;;;6279492;22;20024;-91
2022/12/23 21:02:18;;;;;;;15.03;5.53;;;6.50;99.90;;;;;;6251851;22;20041;-92
2022/12/23 21:04:44;;;;;;;16.05;5.38;;;6.50;99.90;;;;;;6201834;22;20460;-90
2022/12/23 21:07:15;;;;;;;13.68;5.60;;;6.50;99.90;;;;;;6201973;22;20019;-94
2022/12/23 21:10:10;;;;;;;14.50;5.38;;;6.50;99.90;;;;;;6206153;22;20022;-93
2022/12/23 21:12:35;;;;;;;15.10;6.18;;;6.50;99.90;;;;;;6236494;22;20022;-93
2022/12/23 21:15:01;;;;;;;13.37;6.77;;;6.50;99.90;;;;;;6230909;22;20019;-94
2022/12/23 21:17:40;;;;;;;13.83;5.63;;;6.50;99.90;;;;;;6202812;22;20008;-94
2022/12/23 21:20:07;;;;;;;15.07;5.78;;;6.50;99.90;;;;;;6252883;22;20073;-90
2022/12/23 21:22:41;;;;;;;16.88;5.43;;;6.50;99.90;;;;;;6226170;22;20015;-91
2022/12/23 21:25:13;;;;;;;14.25;5.85;;;6.50;99.90;;;;;;6226530;22;20016;-92
2022/12/23 21:27:40;;;;;;;13.40;5.65;;;6.50;99.90;;;;;;6252942;22;20016;-92
2022/12/23 21:30:06;;;;;;;15.45;5.40;;;6.50;99.90;;;;;;6228639;22;20090;-93
2022/12/23 21:32:36;;;;;;;14.63;5.47;;;6.50;99.90;;;;;;6227630;22;20016;-91
2022/12/23 21:35:01;;;;;;;12.07;5.05;;;6.50;99.90;;;;;;6252093;22;20022;-91
2022/12/23 21:37:28;;;;;;;15.03;5.90;;;6.50;99.90;;;;;;6201590;22;20094;-91
